createdAt,value
2022-10-19T00:05:17.492Z,8.10
2022-10-19T00:13:40.828Z,8.10
2022-10-19T00:22:04.209Z,8.00
2022-10-19T00:30:26.942Z,8.60
2022-10-19T00:38:50.723Z,9.20
2022-10-19T00:47:14.021Z,9.50
2022-10-19T00:55:39.778Z,9.20
2022-10-19T01:04:03.791Z,10.70
2022-10-19T01:12:44.742Z,8.50
2022-10-19T01:21:19.828Z,10.60
2022-10-19T01:30:04.740Z,9.10
2022-10-19T01:38:40.981Z,10.20
2022-10-19T01:47:09.239Z,10.20
2022-10-19T01:55:33.702Z,9.40
2022-10-19T02:03:58.198Z,9.40
2022-10-19T02:12:21.768Z,9.20
2022-10-19T02:29:12.238Z,8.60
2022-10-19T02:46:09.210Z,9.30
2022-10-19T02:54:31.980Z,9.70
2022-10-19T03:02:54.755Z,9.50
2022-10-19T03:11:17.405Z,9.50
2022-10-19T03:19:40.195Z,9.30
2022-10-19T03:28:03.463Z,10.80
2022-10-19T03:36:34.282Z,9.30
2022-10-19T03:53:19.598Z,8.30
2022-10-19T04:01:46.483Z,8.30
2022-10-19T04:10:11.867Z,8.30
2022-10-19T04:18:35.222Z,8.30
2022-10-19T04:26:58.046Z,8.70
2022-10-19T04:35:20.714Z,8.40
2022-10-19T04:43:45.335Z,8.80
2022-10-19T04:52:08.323Z,8.60
2022-10-19T05:00:31.130Z,9.10
2022-10-19T05:08:54.378Z,8.70
2022-10-19T05:17:17.220Z,9.70
2022-10-19T05:25:39.959Z,10.20
2022-10-19T05:34:04.171Z,9.80
2022-10-19T05:42:27.023Z,10.20
2022-10-19T05:50:55.245Z,8.70
2022-10-19T05:59:20.528Z,22.10
2022-10-19T06:07:43.307Z,9.60
2022-10-19T06:16:07.498Z,9.00
2022-10-19T06:24:30.377Z,8.60
2022-10-19T06:32:53.552Z,7.10
2022-10-19T06:41:17.541Z,6.40
2022-10-19T06:49:40.281Z,6.30
2022-10-19T06:58:04.293Z,6.10
2022-10-19T07:06:29.093Z,6.10
2022-10-19T07:14:57.031Z,5.50
2022-10-19T07:23:19.959Z,22.50
2022-10-19T07:31:43.909Z,4.90
2022-10-19T07:40:07.795Z,4.70
2022-10-19T07:48:31.026Z,4.80
2022-10-19T07:56:55.907Z,4.50
2022-10-19T08:05:19.185Z,6.00
2022-10-19T08:13:43.721Z,4.90
2022-10-19T08:22:06.549Z,5.00
2022-10-19T08:30:29.286Z,4.40
2022-10-19T08:38:52.559Z,4.70
2022-10-19T08:47:17.427Z,4.20
2022-10-19T08:55:50.009Z,3.30
2022-10-19T09:04:36.629Z,3.40
2022-10-19T09:13:15.526Z,2.40
2022-10-19T09:21:47.783Z,2.10
2022-10-19T09:30:19.737Z,2.40
2022-10-19T09:38:42.644Z,2.20
2022-10-19T09:47:15.346Z,1.80
2022-10-19T09:55:43.155Z,2.40
2022-10-19T10:04:18.551Z,2.50
2022-10-19T10:12:44.019Z,2.10
2022-10-19T10:21:32.081Z,2.50
2022-10-19T10:38:44.967Z,2.00
2022-10-19T10:47:14.714Z,2.10
2022-10-19T10:55:42.321Z,2.30
2022-10-19T11:04:11.840Z,2.20
2022-10-19T11:12:41.547Z,1.90
2022-10-19T11:21:13.240Z,2.10
2022-10-19T11:29:35.879Z,2.90
2022-10-19T11:38:20.394Z,1.50
2022-10-19T11:46:56.747Z,1.10
2022-10-19T11:55:37.704Z,0.90
2022-10-19T12:04:19.088Z,2.00
2022-10-19T12:12:53.537Z,4.50
2022-10-19T12:21:33.725Z,6.00
2022-10-19T12:30:03.403Z,3.60
2022-10-19T12:39:00.173Z,2.80
2022-10-19T12:47:25.538Z,1.20
2022-10-19T12:56:02.307Z,1.90
2022-10-19T13:04:28.376Z,1.20
2022-10-19T13:12:51.899Z,1.00
2022-10-19T13:21:49.759Z,1.50
2022-10-19T13:30:35.788Z,4.10
2022-10-19T13:38:59.679Z,2.20
2022-10-19T13:56:25.930Z,4.10
2022-10-19T14:05:10.914Z,2.70
2022-10-19T14:13:33.610Z,6.50
2022-10-19T14:22:19.733Z,2.50
2022-10-19T14:30:43.759Z,2.50
2022-10-19T14:39:07.596Z,10.10
2022-10-19T14:47:30.668Z,4.80
2022-10-19T14:55:58.355Z,14.40
2022-10-19T15:04:25.441Z,7.70
2022-10-19T15:12:51.683Z,20.20
2022-10-19T15:21:19.359Z,14.20
2022-10-19T15:29:59.119Z,8.20
2022-10-19T15:38:26.874Z,18.50
2022-10-19T15:46:49.603Z,16.10
2022-10-19T15:55:14.741Z,39.90
2022-10-19T16:03:37.429Z,18.10
2022-10-19T16:12:00.203Z,14.10
2022-10-19T16:20:24.013Z,9.40
2022-10-19T16:28:48.575Z,19.90
2022-10-19T16:37:11.319Z,34.60
2022-10-19T16:45:34.233Z,27.20
2022-10-19T16:54:03.165Z,36.40
2022-10-19T17:02:27.143Z,58.10
2022-10-19T17:10:49.838Z,66.60
2022-10-19T17:19:12.692Z,55.30
2022-10-19T17:27:36.462Z,76.60
2022-10-19T17:36:08.313Z,59.00
2022-10-19T17:44:31.911Z,39.70
2022-10-19T17:52:56.960Z,24.80
2022-10-19T18:01:21.459Z,29.50
2022-10-19T18:09:44.151Z,34.40
2022-10-19T18:18:07.050Z,28.00
2022-10-19T18:26:31.990Z,20.70
2022-10-19T18:34:55.107Z,13.20
2022-10-19T18:43:17.861Z,29.80
2022-10-19T18:51:40.570Z,30.00
2022-10-19T19:00:04.363Z,13.30
2022-10-19T19:08:28.779Z,12.20
2022-10-19T19:16:51.787Z,10.50
2022-10-19T19:25:15.041Z,13.50
2022-10-19T19:33:39.223Z,35.70
2022-10-19T19:42:01.896Z,20.90
2022-10-19T19:50:24.814Z,19.60
2022-10-19T19:58:48.064Z,12.40
2022-10-19T20:07:10.804Z,12.30
2022-10-19T20:15:37.353Z,9.60
2022-10-19T20:24:01.474Z,8.50
2022-10-19T20:32:26.250Z,8.60
2022-10-19T20:40:49.068Z,11.90
2022-10-19T20:49:13.195Z,9.80
2022-10-19T20:57:35.921Z,10.50
2022-10-19T21:06:02.181Z,9.30
2022-10-19T21:14:29.236Z,9.60
2022-10-19T21:22:52.131Z,9.40
2022-10-19T21:31:16.824Z,8.70
2022-10-19T21:39:39.639Z,7.50
2022-10-19T21:48:02.367Z,7.10
2022-10-19T21:56:25.965Z,7.60
2022-10-19T22:04:48.660Z,7.50
2022-10-19T22:13:11.328Z,8.90
2022-10-19T22:21:35.365Z,7.00
2022-10-19T22:29:58.182Z,6.60
2022-10-19T22:38:20.873Z,7.90
2022-10-19T22:46:43.620Z,7.50
2022-10-19T22:55:07.419Z,7.10
2022-10-19T23:03:30.262Z,7.10
2022-10-19T23:11:53.164Z,6.80
2022-10-19T23:20:16.095Z,6.20
2022-10-19T23:28:43.182Z,6.70
2022-10-19T23:37:06.078Z,5.40
2022-10-19T23:45:28.809Z,6.80
2022-10-19T23:53:53.207Z,5.00
